createdAt,value
2017-06-14T00:00:46.381Z,0
2017-06-14T00:02:01.873Z,0
2017-06-14T00:03:17.323Z,0
2017-06-14T00:04:32.752Z,0
2017-06-14T00:05:48.237Z,0
2017-06-14T00:07:02.351Z,0
2017-06-14T00:08:18.338Z,0
2017-06-14T00:09:32.469Z,0
2017-06-14T00:10:47.921Z,0
2017-06-14T00:12:03.356Z,0
2017-06-14T00:13:18.786Z,0
2017-06-14T00:14:34.157Z,0
2017-06-14T00:15:48.591Z,0
2017-06-14T00:17:04.056Z,0
2017-06-14T00:18:19.522Z,0
2017-06-14T00:19:32.389Z,0
2017-06-14T00:20:47.841Z,0
2017-06-14T00:22:03.294Z,0
2017-06-14T00:23:18.810Z,0
2017-06-14T00:24:34.272Z,0
2017-06-14T00:25:49.721Z,0
2017-06-14T00:27:05.164Z,0
2017-06-14T00:28:20.602Z,0
2017-06-14T00:29:34.684Z,0
2017-06-14T00:30:49.737Z,0
2017-06-14T00:32:05.148Z,0
2017-06-14T00:33:20.787Z,0
2017-06-14T00:34:36.171Z,0
2017-06-14T00:35:51.992Z,0
2017-06-14T00:37:06.120Z,0
2017-06-14T00:38:21.537Z,0
2017-06-14T00:39:37.408Z,0
2017-06-14T00:40:52.848Z,0
2017-06-14T00:42:08.214Z,0
2017-06-14T00:43:23.668Z,0
2017-06-14T00:44:39.369Z,0
2017-06-14T00:45:54.801Z,0
2017-06-14T00:47:10.282Z,0
2017-06-14T00:48:25.738Z,0
2017-06-14T00:49:41.158Z,0
2017-06-14T00:50:56.582Z,0
2017-06-14T00:52:12.022Z,0
2017-06-14T00:53:27.487Z,0
2017-06-14T00:54:42.988Z,0
2017-06-14T00:55:58.576Z,0
2017-06-14T00:57:14.079Z,0
2017-06-14T00:58:29.559Z,0
2017-06-14T00:59:44.887Z,0
2017-06-14T01:00:59.026Z,0
2017-06-14T01:02:14.606Z,0
2017-06-14T01:03:28.605Z,0
2017-06-14T01:04:42.642Z,0
2017-06-14T01:05:58.102Z,0
2017-06-14T01:07:13.575Z,0
2017-06-14T01:08:29.044Z,0
2017-06-14T01:09:44.524Z,0
2017-06-14T01:11:00.003Z,0
2017-06-14T01:12:15.481Z,0
2017-06-14T01:13:30.518Z,0
2017-06-14T01:14:44.670Z,0
2017-06-14T01:15:58.637Z,0
2017-06-14T01:17:14.177Z,0
2017-06-14T01:18:29.560Z,0
2017-06-14T01:19:43.891Z,0
2017-06-14T01:20:59.364Z,0
2017-06-14T01:22:13.487Z,0
2017-06-14T01:23:59.611Z,0
2017-06-14T01:25:15.075Z,0
2017-06-14T01:26:30.699Z,0
2017-06-14T01:27:46.151Z,0
2017-06-14T01:29:01.604Z,0
2017-06-14T01:30:17.099Z,0
2017-06-14T01:31:32.529Z,0
2017-06-14T01:32:46.684Z,0
2017-06-14T01:34:02.134Z,0
2017-06-14T01:35:17.599Z,0
2017-06-14T01:36:33.044Z,0
2017-06-14T01:37:48.643Z,0
2017-06-14T01:39:02.762Z,0
2017-06-14T01:40:18.242Z,0
2017-06-14T01:41:33.706Z,0
2017-06-14T01:42:47.849Z,0
2017-06-14T01:44:03.299Z,0
2017-06-14T01:45:18.710Z,0
2017-06-14T01:46:34.154Z,0
2017-06-14T01:47:48.399Z,0
2017-06-14T01:49:03.968Z,0
2017-06-14T01:50:19.414Z,0
2017-06-14T01:51:35.047Z,0
2017-06-14T01:53:03.922Z,0
2017-06-14T01:54:19.330Z,0
2017-06-14T01:55:33.468Z,0
2017-06-14T01:56:47.503Z,0
2017-06-14T01:58:02.996Z,0
2017-06-14T01:59:17.227Z,0
2017-06-14T02:00:28.823Z,0
2017-06-14T02:01:44.241Z,0
2017-06-14T02:02:59.681Z,0
2017-06-14T02:04:15.105Z,0
2017-06-14T02:05:29.245Z,0
2017-06-14T02:06:44.761Z,4
2017-06-14T02:08:00.241Z,4
2017-06-14T02:09:15.638Z,0
2017-06-14T02:10:29.788Z,0
2017-06-14T02:11:45.474Z,4
2017-06-14T02:13:00.892Z,4
2017-06-14T02:14:16.364Z,4
2017-06-14T02:15:31.798Z,4
2017-06-14T02:16:47.179Z,4
2017-06-14T02:17:59.993Z,8
2017-06-14T02:19:15.427Z,8
2017-06-14T02:20:31.104Z,8
2017-06-14T02:21:46.761Z,8
2017-06-14T02:23:02.262Z,12
2017-06-14T02:24:17.724Z,16
2017-06-14T02:25:33.374Z,16
2017-06-14T02:26:48.834Z,16
2017-06-14T02:28:04.273Z,20
2017-06-14T02:29:19.384Z,24
2017-06-14T02:30:34.848Z,28
2017-06-14T02:31:50.358Z,32
2017-06-14T02:33:06.023Z,40
2017-06-14T02:34:20.215Z,44
2017-06-14T02:35:35.660Z,48
2017-06-14T02:36:51.258Z,56
2017-06-14T02:38:05.496Z,64
2017-06-14T02:39:20.985Z,72
2017-06-14T02:40:36.413Z,84
2017-06-14T02:41:51.821Z,96
2017-06-14T02:43:07.226Z,108
2017-06-14T02:44:21.399Z,120
2017-06-14T02:45:35.561Z,136
2017-06-14T02:46:51.078Z,152
2017-06-14T02:48:06.571Z,168
2017-06-14T02:49:22.022Z,188
2017-06-14T02:50:36.107Z,204
2017-06-14T02:51:51.551Z,224
2017-06-14T02:53:06.986Z,244
2017-06-14T02:54:22.486Z,268
2017-06-14T02:55:37.574Z,292
2017-06-14T02:56:53.019Z,316
2017-06-14T02:58:08.489Z,344
2017-06-14T02:59:23.948Z,368
2017-06-14T03:00:38.063Z,396
2017-06-14T03:01:53.445Z,424
2017-06-14T03:03:08.886Z,456
2017-06-14T03:04:23.941Z,488
2017-06-14T03:05:39.376Z,516
2017-06-14T03:06:54.812Z,548
2017-06-14T03:08:10.272Z,584
2017-06-14T03:09:25.732Z,620
2017-06-14T03:10:41.191Z,660
2017-06-14T03:11:55.463Z,696
2017-06-14T03:13:10.762Z,732
2017-06-14T03:14:26.237Z,772
2017-06-14T03:15:55.284Z,812
2017-06-14T03:17:10.983Z,848
2017-06-14T03:18:26.465Z,884
2017-06-14T03:19:41.752Z,924
2017-06-14T03:20:57.224Z,960
2017-06-14T03:22:09.918Z,996
2017-06-14T03:23:25.593Z,1032
2017-06-14T03:24:41.088Z,1068
2017-06-14T03:25:56.562Z,1108
2017-06-14T03:27:11.991Z,1144
2017-06-14T03:28:27.990Z,1180
2017-06-14T03:29:43.446Z,1220
2017-06-14T03:30:59.018Z,1260
2017-06-14T03:32:14.623Z,1296
2017-06-14T03:33:28.834Z,1332
2017-06-14T03:34:44.305Z,1364
2017-06-14T03:35:59.746Z,1396
2017-06-14T03:37:15.524Z,1432
2017-06-14T03:38:30.969Z,1468
2017-06-14T03:39:46.645Z,1496
2017-06-14T03:41:02.129Z,1532
2017-06-14T03:42:17.650Z,1568
2017-06-14T03:43:31.627Z,1612
2017-06-14T03:44:43.269Z,1652
2017-06-14T03:45:58.832Z,1708
2017-06-14T03:47:14.278Z,1784
2017-06-14T03:48:29.720Z,1880
2017-06-14T03:49:45.603Z,1940
2017-06-14T03:51:01.058Z,1952
2017-06-14T03:52:15.138Z,1948
2017-06-14T03:53:30.549Z,1976
2017-06-14T03:54:44.555Z,2000
2017-06-14T03:56:00.035Z,2032
2017-06-14T03:57:15.708Z,2060
2017-06-14T03:58:31.170Z,2084
2017-06-14T03:59:46.784Z,2116
2017-06-14T04:01:02.319Z,2124
2017-06-14T04:02:17.784Z,2144
2017-06-14T04:03:33.449Z,2188
2017-06-14T04:04:48.923Z,2188
2017-06-14T04:06:04.357Z,2196
2017-06-14T04:07:19.801Z,2212
2017-06-14T04:08:35.251Z,2232
2017-06-14T04:09:50.687Z,2264
2017-06-14T04:11:06.145Z,2300
2017-06-14T04:12:21.839Z,2336
2017-06-14T04:13:36.017Z,2372
2017-06-14T04:14:51.468Z,2412
2017-06-14T04:16:06.956Z,2448
2017-06-14T04:17:22.403Z,2492
2017-06-14T04:18:37.836Z,2520
2017-06-14T04:19:53.269Z,2556
2017-06-14T04:21:08.369Z,2584
2017-06-14T04:22:24.044Z,2612
2017-06-14T04:23:39.495Z,2640
2017-06-14T04:24:53.626Z,2676
2017-06-14T04:26:07.791Z,2708
2017-06-14T04:27:23.379Z,2740
2017-06-14T04:28:38.806Z,2752
2017-06-14T04:29:54.452Z,2788
2017-06-14T04:31:10.109Z,2824
2017-06-14T04:32:25.606Z,2856
2017-06-14T04:33:41.016Z,2888
2017-06-14T04:34:56.472Z,2928
2017-06-14T04:36:11.992Z,2924
2017-06-14T04:37:26.133Z,2940
2017-06-14T04:38:41.574Z,2976
2017-06-14T04:39:55.495Z,2996
2017-06-14T04:41:09.633Z,3004
2017-06-14T04:42:25.017Z,2992
2017-06-14T04:43:40.483Z,3012
2017-06-14T04:44:55.909Z,3064
2017-06-14T04:46:11.588Z,3108
2017-06-14T04:47:27.051Z,3148
2017-06-14T04:48:42.519Z,3188
2017-06-14T04:49:58.042Z,3216
2017-06-14T04:51:11.792Z,3248
2017-06-14T04:52:27.266Z,3268
2017-06-14T04:53:42.451Z,3296
2017-06-14T04:54:57.532Z,3324
2017-06-14T04:56:13.165Z,3352
2017-06-14T04:57:28.627Z,3376
2017-06-14T04:58:42.749Z,3392
2017-06-14T04:59:58.259Z,3424
2017-06-14T05:01:13.695Z,3460
2017-06-14T05:02:29.139Z,3488
2017-06-14T05:03:44.675Z,3520
2017-06-14T05:04:58.666Z,3560
2017-06-14T05:06:14.110Z,3584
2017-06-14T05:07:29.598Z,3616
2017-06-14T05:08:45.097Z,3660
2017-06-14T05:10:00.562Z,3260
2017-06-14T05:11:16.019Z,3680
2017-06-14T05:12:30.227Z,3604
2017-06-14T05:13:44.442Z,3620
2017-06-14T05:15:00.049Z,3672
2017-06-14T05:16:15.522Z,3804
2017-06-14T05:17:30.937Z,3816
2017-06-14T05:18:46.405Z,3840
2017-06-14T05:20:01.864Z,3864
2017-06-14T05:21:17.402Z,3892
2017-06-14T05:22:32.848Z,3924
2017-06-14T05:23:48.324Z,3968
2017-06-14T05:25:03.785Z,3992
2017-06-14T05:26:19.261Z,3996
2017-06-14T05:27:34.742Z,4076
2017-06-14T05:28:50.180Z,4156
2017-06-14T05:30:04.368Z,4164
2017-06-14T05:31:19.842Z,4180
2017-06-14T05:32:34.054Z,4208
2017-06-14T05:33:49.508Z,4200
2017-06-14T05:35:18.672Z,4304
2017-06-14T05:36:34.111Z,4264
2017-06-14T05:37:49.491Z,4440
2017-06-14T05:39:04.943Z,4536
2017-06-14T05:40:20.400Z,4616
2017-06-14T05:41:35.850Z,4572
2017-06-14T05:42:51.370Z,4812
2017-06-14T05:44:05.550Z,4664
2017-06-14T05:45:21.039Z,5688
2017-06-14T05:46:36.525Z,4440
2017-06-14T05:47:50.706Z,5976
2017-06-14T05:49:06.162Z,5852
2017-06-14T05:50:21.592Z,7144
2017-06-14T05:51:37.334Z,5044
2017-06-14T05:52:52.819Z,5684
2017-06-14T05:54:08.281Z,7052
2017-06-14T05:55:23.749Z,4512
2017-06-14T05:56:39.188Z,4000
2017-06-14T05:57:54.655Z,3932
2017-06-14T05:59:10.199Z,5272
2017-06-14T06:00:25.694Z,5464
2017-06-14T06:01:41.188Z,5620
2017-06-14T06:02:55.320Z,5640
2017-06-14T06:04:10.757Z,5160
2017-06-14T06:05:24.924Z,5536
2017-06-14T06:06:40.361Z,5236
2017-06-14T06:07:55.793Z,5436
2017-06-14T06:09:11.285Z,5484
2017-06-14T06:10:25.439Z,5000
2017-06-14T06:11:40.902Z,5316
2017-06-14T06:12:56.552Z,4372
2017-06-14T06:14:10.725Z,4164
2017-06-14T06:15:26.355Z,5664
2017-06-14T06:16:41.882Z,4772
2017-06-14T06:17:57.515Z,5760
2017-06-14T06:19:13.042Z,5300
2017-06-14T06:20:28.558Z,4540
2017-06-14T06:21:44.031Z,4268
2017-06-14T06:22:59.744Z,4144
2017-06-14T06:24:15.224Z,4100
2017-06-14T06:25:30.716Z,4184
2017-06-14T06:26:45.800Z,4436
2017-06-14T06:27:59.994Z,4512
2017-06-14T06:29:15.393Z,4792
2017-06-14T06:30:29.510Z,5704
2017-06-14T06:31:43.675Z,7304
2017-06-14T06:32:59.128Z,6832
2017-06-14T06:34:13.327Z,7428
2017-06-14T06:35:28.755Z,7012
2017-06-14T06:36:42.950Z,9268
2017-06-14T06:37:58.142Z,9944
2017-06-14T06:39:13.582Z,10756
2017-06-14T06:40:27.826Z,12116
2017-06-14T06:41:43.278Z,14308
2017-06-14T06:42:58.750Z,14744
2017-06-14T06:44:14.186Z,13036
2017-06-14T06:45:29.615Z,10832
2017-06-14T06:46:45.087Z,11496
2017-06-14T06:47:59.211Z,11400
2017-06-14T06:49:14.674Z,9684
2017-06-14T06:50:30.114Z,9436
2017-06-14T06:51:45.757Z,12492
2017-06-14T06:53:01.237Z,13280
2017-06-14T06:54:16.873Z,11928
2017-06-14T06:55:32.458Z,13152
2017-06-14T06:56:46.542Z,13476
2017-06-14T06:58:02.009Z,12472
2017-06-14T06:59:17.528Z,12732
2017-06-14T07:00:33.121Z,10284
2017-06-14T07:01:48.553Z,7900
2017-06-14T07:03:04.006Z,8476
2017-06-14T07:04:19.408Z,9548
2017-06-14T07:05:32.240Z,9424
2017-06-14T07:06:47.674Z,9620
2017-06-14T07:08:03.169Z,10164
2017-06-14T07:09:18.628Z,9524
2017-06-14T07:10:34.165Z,9876
2017-06-14T07:11:48.325Z,9452
2017-06-14T07:13:03.805Z,9584
2017-06-14T07:14:19.258Z,10772
2017-06-14T07:15:33.293Z,9728
2017-06-14T07:16:48.770Z,8640
2017-06-14T07:18:04.213Z,8448
2017-06-14T07:19:19.674Z,8212
2017-06-14T07:20:35.181Z,10900
2017-06-14T07:21:48.062Z,11268
2017-06-14T07:23:03.542Z,10932
2017-06-14T07:24:19.174Z,10764
2017-06-14T07:25:34.286Z,8448
2017-06-14T07:26:49.731Z,7880
2017-06-14T07:28:05.220Z,8060
2017-06-14T07:29:20.337Z,10476
2017-06-14T07:30:35.879Z,14240
2017-06-14T07:31:51.326Z,15572
2017-06-14T07:33:06.774Z,13544
2017-06-14T07:34:22.265Z,11244
2017-06-14T07:35:37.704Z,9944
2017-06-14T07:36:53.193Z,9084
2017-06-14T07:38:08.630Z,8860
2017-06-14T07:39:24.085Z,6932
2017-06-14T07:40:39.576Z,5980
2017-06-14T07:41:55.042Z,6860
2017-06-14T07:43:10.505Z,6800
2017-06-14T07:44:26.066Z,7000
2017-06-14T07:45:41.548Z,7276
2017-06-14T07:46:56.986Z,7504
2017-06-14T07:48:12.433Z,7544
2017-06-14T07:49:27.911Z,7608
2017-06-14T07:50:43.468Z,8328
2017-06-14T07:51:59.055Z,7552
2017-06-14T07:53:14.493Z,7232
2017-06-14T07:54:29.952Z,8316
2017-06-14T07:55:45.396Z,8512
2017-06-14T07:56:59.414Z,8924
2017-06-14T07:58:14.867Z,8868
2017-06-14T07:59:30.319Z,8988
2017-06-14T08:00:45.779Z,9772
2017-06-14T08:02:01.221Z,10252
2017-06-14T08:03:15.427Z,10528
2017-06-14T08:04:30.988Z,11044
2017-06-14T08:05:46.427Z,12508
2017-06-14T08:07:01.912Z,14684
2017-06-14T08:08:17.230Z,16040
2017-06-14T08:09:32.737Z,17728
2017-06-14T08:10:48.172Z,17824
2017-06-14T08:11:59.564Z,13868
2017-06-14T08:13:15.030Z,11500
2017-06-14T08:14:30.140Z,12268
2017-06-14T08:15:45.618Z,10696
2017-06-14T08:17:01.129Z,8120
2017-06-14T08:18:30.030Z,9064
2017-06-14T08:19:45.471Z,9524
2017-06-14T08:21:01.122Z,10124
2017-06-14T08:22:16.624Z,10348
2017-06-14T08:23:32.115Z,10360
2017-06-14T08:24:47.587Z,11628
2017-06-14T08:26:03.031Z,10180
2017-06-14T08:27:18.697Z,10568
2017-06-14T08:28:34.152Z,11420
2017-06-14T08:29:49.559Z,11944
2017-06-14T08:31:03.930Z,13156
2017-06-14T08:32:19.349Z,15392
2017-06-14T08:33:33.427Z,15952
2017-06-14T08:34:49.071Z,15152
2017-06-14T08:36:02.009Z,12676
2017-06-14T08:37:17.480Z,12192
2017-06-14T08:38:32.920Z,12812
2017-06-14T08:39:48.367Z,12512
2017-06-14T08:41:03.962Z,17920
2017-06-14T08:42:19.456Z,28512
2017-06-14T08:43:34.902Z,70528
2017-06-14T08:44:50.392Z,74720
2017-06-14T08:46:04.514Z,31968
2017-06-14T08:47:20.053Z,63296
2017-06-14T08:48:35.517Z,62240
2017-06-14T08:49:49.680Z,24960
2017-06-14T08:51:05.176Z,14160
2017-06-14T08:52:19.507Z,15396
2017-06-14T08:53:34.996Z,13632
2017-06-14T08:54:50.440Z,9644
2017-06-14T08:56:06.098Z,11792
2017-06-14T08:57:21.725Z,12068
2017-06-14T08:59:06.737Z,13040
2017-06-14T09:00:22.325Z,13700
2017-06-14T09:01:37.831Z,35104
2017-06-14T09:02:53.040Z,81184
2017-06-14T09:04:08.761Z,95680
2017-06-14T09:05:24.228Z,83776
2017-06-14T09:06:39.691Z,79136
2017-06-14T09:07:55.362Z,88608
2017-06-14T09:09:10.801Z,88448
2017-06-14T09:10:26.466Z,92416
2017-06-14T09:11:41.904Z,99328
2017-06-14T09:12:57.437Z,57664
2017-06-14T09:14:12.846Z,15096
2017-06-14T09:15:28.312Z,127040
2017-06-14T09:16:43.754Z,87040
2017-06-14T09:17:59.434Z,85728
2017-06-14T09:19:15.109Z,123328
2017-06-14T09:20:30.548Z,119136
2017-06-14T09:21:44.756Z,82560
2017-06-14T09:23:00.211Z,68896
2017-06-14T09:24:15.699Z,91808
2017-06-14T09:25:29.852Z,106816
2017-06-14T09:26:45.286Z,100832
2017-06-14T09:28:00.746Z,91168
2017-06-14T09:29:16.225Z,98720
2017-06-14T09:30:31.920Z,109568
2017-06-14T09:32:00.842Z,111936
2017-06-14T09:33:16.588Z,105088
2017-06-14T09:34:32.047Z,93696
2017-06-14T09:35:47.539Z,99904
2017-06-14T09:37:03.067Z,103104
2017-06-14T09:38:18.568Z,89984
2017-06-14T09:39:34.110Z,83296
2017-06-14T09:40:49.686Z,96096
2017-06-14T09:42:05.223Z,112768
2017-06-14T09:43:20.743Z,95200
2017-06-14T09:44:34.986Z,92288
2017-06-14T09:45:50.509Z,116576
2017-06-14T09:47:05.981Z,119840
2017-06-14T09:48:21.627Z,105632
2017-06-14T09:49:37.042Z,81216
2017-06-14T09:50:52.688Z,61952
2017-06-14T09:52:08.158Z,67584
2017-06-14T09:53:23.680Z,88224
2017-06-14T09:54:39.177Z,116320
2017-06-14T09:55:54.658Z,133920
2017-06-14T09:57:10.348Z,101216
2017-06-14T09:58:25.866Z,91456
2017-06-14T09:59:41.342Z,99872
2017-06-14T10:00:56.794Z,99392
2017-06-14T10:02:10.927Z,95968
2017-06-14T10:03:26.402Z,84576
2017-06-14T10:04:42.030Z,119616
2017-06-14T10:05:57.536Z,124288
2017-06-14T10:07:13.060Z,102656
2017-06-14T10:08:28.547Z,97824
2017-06-14T10:09:44.028Z,124736
2017-06-14T10:11:30.445Z,119840
2017-06-14T10:12:46.126Z,112832
2017-06-14T10:14:01.624Z,122880
2017-06-14T10:15:15.844Z,141888
2017-06-14T10:16:31.314Z,137920
2017-06-14T10:17:46.834Z,139520
2017-06-14T10:19:02.294Z,146656
2017-06-14T10:20:16.414Z,143328
2017-06-14T10:21:30.602Z,143392
2017-06-14T10:22:46.137Z,143008
2017-06-14T10:24:01.596Z,124160
2017-06-14T10:25:17.267Z,104448
2017-06-14T10:26:32.752Z,113248
2017-06-14T10:27:48.250Z,140704
2017-06-14T10:29:02.441Z,151360
2017-06-14T10:30:18.094Z,136224
2017-06-14T10:31:33.561Z,108192
2017-06-14T10:32:49.058Z,93568
2017-06-14T10:34:04.529Z,109216
2017-06-14T10:35:20.004Z,125888
2017-06-14T10:36:35.484Z,118208
2017-06-14T10:37:51.027Z,120704
2017-06-14T10:39:06.529Z,140320
2017-06-14T10:40:22.044Z,143488
2017-06-14T10:41:37.535Z,129024
2017-06-14T10:42:53.033Z,122048
2017-06-14T10:44:08.522Z,124576
2017-06-14T10:45:24.000Z,135456
2017-06-14T10:46:39.440Z,130592
2017-06-14T10:47:54.934Z,116512
2017-06-14T10:49:10.429Z,105472
2017-06-14T10:50:24.489Z,104320
2017-06-14T10:51:39.956Z,103168
2017-06-14T10:52:55.479Z,113152
2017-06-14T10:54:11.158Z,141728
2017-06-14T10:55:26.614Z,148832
2017-06-14T10:56:40.829Z,128320
2017-06-14T10:57:56.326Z,109056
2017-06-14T10:59:12.167Z,132288
2017-06-14T11:00:27.863Z,145600
2017-06-14T11:01:42.129Z,150304
2017-06-14T11:02:57.277Z,134688
2017-06-14T11:04:12.838Z,97472
2017-06-14T11:05:28.362Z,99328
2017-06-14T11:06:43.920Z,144224
2017-06-14T11:07:59.441Z,137888
2017-06-14T11:09:13.626Z,100928
2017-06-14T11:10:29.125Z,128768
2017-06-14T11:11:44.587Z,165728
2017-06-14T11:13:00.077Z,140480
2017-06-14T11:14:15.539Z,120704
2017-06-14T11:15:31.025Z,157344
2017-06-14T11:16:46.485Z,177312
2017-06-14T11:18:00.702Z,128192
2017-06-14T11:19:16.245Z,91072
2017-06-14T11:20:31.696Z,114816
2017-06-14T11:21:47.360Z,128992
2017-06-14T11:23:02.868Z,82656
2017-06-14T11:24:18.350Z,49504
2017-06-14T11:25:33.812Z,80960
2017-06-14T11:26:49.285Z,129216
2017-06-14T11:28:03.465Z,145920
2017-06-14T11:29:18.989Z,121408
2017-06-14T11:30:34.461Z,107232
2017-06-14T11:31:50.039Z,140288
2017-06-14T11:33:05.551Z,149408
2017-06-14T11:34:21.063Z,111552
2017-06-14T11:35:36.588Z,105984
2017-06-14T11:36:50.625Z,145856
2017-06-14T11:38:06.074Z,140640
2017-06-14T11:39:20.266Z,106080
2017-06-14T11:40:35.736Z,121728
2017-06-14T11:41:51.416Z,171456
2017-06-14T11:43:06.921Z,165888
2017-06-14T11:44:22.453Z,115328
2017-06-14T11:45:37.928Z,89920
2017-06-14T11:46:53.423Z,105344
2017-06-14T11:48:07.469Z,117056
2017-06-14T11:49:22.978Z,100480
2017-06-14T11:50:37.124Z,91008
2017-06-14T11:51:52.587Z,116704
2017-06-14T11:53:06.762Z,145440
2017-06-14T11:54:20.953Z,133568
2017-06-14T11:55:49.812Z,93152
2017-06-14T11:57:18.073Z,78464
2017-06-14T11:58:32.149Z,85312
2017-06-14T11:59:47.638Z,90176
2017-06-14T12:01:03.299Z,96928
2017-06-14T12:02:18.954Z,111712
2017-06-14T12:03:34.442Z,105824
2017-06-14T12:04:50.058Z,95232
2017-06-14T12:06:05.544Z,89536
2017-06-14T12:07:21.090Z,100320
2017-06-14T12:08:36.659Z,106528
2017-06-14T12:09:52.102Z,101792
2017-06-14T12:11:07.583Z,98304
2017-06-14T12:12:21.781Z,108992
2017-06-14T12:13:37.271Z,124128
2017-06-14T12:14:52.759Z,131424
2017-06-14T12:16:08.328Z,123680
2017-06-14T12:17:23.825Z,114816
2017-06-14T12:18:39.305Z,109824
2017-06-14T12:19:54.846Z,102080
2017-06-14T12:21:10.672Z,95584
2017-06-14T12:22:24.857Z,95712
2017-06-14T12:23:40.343Z,108032
2017-06-14T12:24:55.876Z,126304
2017-06-14T12:26:11.558Z,137248
2017-06-14T12:27:27.080Z,135552
2017-06-14T12:28:42.584Z,113280
2017-06-14T12:29:58.156Z,85632
2017-06-14T12:31:13.554Z,90080
2017-06-14T12:32:42.867Z,116096
2017-06-14T12:33:56.898Z,117952
2017-06-14T12:35:11.104Z,104384
2017-06-14T12:36:26.609Z,109120
2017-06-14T12:37:42.130Z,139392
2017-06-14T12:38:57.558Z,127264
2017-06-14T12:40:13.040Z,101792
2017-06-14T12:41:28.874Z,99424
2017-06-14T12:42:43.053Z,107936
2017-06-14T12:43:58.766Z,96224
2017-06-14T12:45:11.719Z,94400
2017-06-14T12:46:27.298Z,123520
2017-06-14T12:47:42.778Z,148224
2017-06-14T12:48:58.376Z,132128
2017-06-14T12:50:14.054Z,94464
2017-06-14T12:51:29.730Z,96384
2017-06-14T12:52:45.243Z,120384
2017-06-14T12:54:00.759Z,133184
2017-06-14T12:55:14.570Z,118112
2017-06-14T12:56:30.069Z,97440
2017-06-14T12:57:45.976Z,98624
2017-06-14T12:59:01.631Z,108800
2017-06-14T13:00:17.321Z,113056
2017-06-14T13:01:32.826Z,104928
2017-06-14T13:02:48.463Z,105408
2017-06-14T13:04:03.955Z,103072
2017-06-14T13:05:19.441Z,95616
2017-06-14T13:06:34.913Z,95072
2017-06-14T13:07:50.787Z,103264
2017-06-14T13:09:06.322Z,116320
2017-06-14T13:10:22.008Z,133024
2017-06-14T13:11:37.521Z,129984
2017-06-14T13:12:53.198Z,105824
2017-06-14T13:14:08.649Z,95328
2017-06-14T13:15:22.815Z,119552
2017-06-14T13:16:36.824Z,131264
2017-06-14T13:17:52.508Z,118944
2017-06-14T13:19:06.683Z,113856
2017-06-14T13:20:22.231Z,118272
2017-06-14T13:21:37.707Z,101376
2017-06-14T13:22:53.403Z,72480
2017-06-14T13:24:09.085Z,55104
2017-06-14T13:25:24.811Z,77056
2017-06-14T13:26:40.224Z,123392
2017-06-14T13:27:55.796Z,133696
2017-06-14T13:29:11.490Z,82688
2017-06-14T13:30:27.094Z,88384
2017-06-14T13:31:42.548Z,99552
2017-06-14T13:32:58.164Z,102464
2017-06-14T13:34:13.637Z,83584
2017-06-14T13:35:29.147Z,88000
2017-06-14T13:36:44.695Z,110368
2017-06-14T13:38:00.182Z,101856
2017-06-14T13:39:14.391Z,66240
2017-06-14T13:40:29.975Z,58208
2017-06-14T13:41:45.486Z,107616
2017-06-14T13:43:01.418Z,130304
2017-06-14T13:44:16.966Z,88832
2017-06-14T13:45:32.137Z,40672
2017-06-14T13:46:47.613Z,52352
2017-06-14T13:48:03.044Z,105952
2017-06-14T13:49:18.767Z,124160
2017-06-14T13:50:34.299Z,83776
2017-06-14T13:51:49.782Z,54976
2017-06-14T13:53:05.249Z,72096
2017-06-14T13:54:21.143Z,94752
2017-06-14T13:55:36.689Z,82880
2017-06-14T13:56:52.185Z,69408
2017-06-14T13:58:07.921Z,77344
2017-06-14T13:59:21.954Z,90752
2017-06-14T14:00:37.742Z,86464
2017-06-14T14:01:53.279Z,60608
2017-06-14T14:03:08.756Z,54144
2017-06-14T14:04:24.286Z,89088
2017-06-14T14:05:38.435Z,115040
2017-06-14T14:06:54.104Z,98912
2017-06-14T14:08:09.599Z,69856
2017-06-14T14:09:25.282Z,70688
2017-06-14T14:10:40.733Z,91744
2017-06-14T14:11:56.255Z,82944
2017-06-14T14:13:11.908Z,65920
2017-06-14T14:14:27.385Z,68832
2017-06-14T14:15:42.868Z,78304
2017-06-14T14:16:57.196Z,66016
2017-06-14T14:18:12.727Z,74272
2017-06-14T14:19:28.268Z,93248
2017-06-14T14:20:43.758Z,92448
2017-06-14T14:21:57.819Z,90176
2017-06-14T14:23:13.309Z,94080
2017-06-14T14:24:28.754Z,93056
2017-06-14T14:25:41.657Z,78976
2017-06-14T14:26:57.321Z,72000
2017-06-14T14:28:12.813Z,76320
2017-06-14T14:29:28.380Z,77760
2017-06-14T14:30:43.852Z,71392
2017-06-14T14:31:59.322Z,59616
2017-06-14T14:33:13.606Z,64192
2017-06-14T14:34:29.159Z,80864
2017-06-14T14:35:44.646Z,89504
2017-06-14T14:37:00.097Z,85984
2017-06-14T14:38:15.619Z,90240
2017-06-14T14:39:31.150Z,77728
2017-06-14T14:40:46.632Z,59104
2017-06-14T14:42:02.214Z,70976
2017-06-14T14:43:17.989Z,98560
2017-06-14T14:44:33.504Z,96192
2017-06-14T14:45:49.002Z,71296
2017-06-14T14:47:04.534Z,55744
2017-06-14T14:48:20.023Z,58752
2017-06-14T14:49:35.640Z,74944
2017-06-14T14:50:49.742Z,82752
2017-06-14T14:52:05.259Z,71264
2017-06-14T14:53:20.779Z,66112
2017-06-14T14:54:36.450Z,70400
2017-06-14T14:55:50.640Z,60192
2017-06-14T14:57:06.234Z,61376
2017-06-14T14:58:35.305Z,74528
2017-06-14T14:59:50.719Z,67296
2017-06-14T15:01:06.205Z,23104
2017-06-14T15:02:21.771Z,12480
2017-06-14T15:03:37.276Z,11520
2017-06-14T15:04:52.926Z,11140
2017-06-14T15:06:08.441Z,10720
2017-06-14T15:07:23.945Z,10360
2017-06-14T15:08:39.412Z,10064
2017-06-14T15:09:54.947Z,9712
2017-06-14T15:11:09.095Z,9336
2017-06-14T15:12:24.590Z,9204
2017-06-14T15:13:40.111Z,9024
2017-06-14T15:14:55.711Z,8860
2017-06-14T15:16:11.197Z,8816
2017-06-14T15:17:26.909Z,8744
2017-06-14T15:18:42.429Z,8692
2017-06-14T15:19:57.895Z,8580
2017-06-14T15:21:13.294Z,8500
2017-06-14T15:22:28.926Z,8480
2017-06-14T15:23:42.955Z,8484
2017-06-14T15:24:58.432Z,8388
2017-06-14T15:26:13.943Z,8320
2017-06-14T15:27:29.456Z,8364
2017-06-14T15:28:44.975Z,8352
2017-06-14T15:30:00.761Z,8240
2017-06-14T15:31:16.293Z,7984
2017-06-14T15:32:31.815Z,7912
2017-06-14T15:33:47.278Z,7832
2017-06-14T15:35:00.380Z,7756
2017-06-14T15:36:15.840Z,7728
2017-06-14T15:37:31.470Z,7620
2017-06-14T15:38:46.974Z,7700
2017-06-14T15:40:02.660Z,7676
2017-06-14T15:41:18.173Z,7672
2017-06-14T15:42:33.893Z,7644
2017-06-14T15:43:49.141Z,7340
2017-06-14T15:45:04.767Z,7400
2017-06-14T15:46:20.403Z,7400
2017-06-14T15:47:35.878Z,7372
2017-06-14T15:48:51.438Z,7208
2017-06-14T15:50:07.321Z,7136
2017-06-14T15:51:22.822Z,6948
2017-06-14T15:52:38.314Z,6844
2017-06-14T15:53:53.542Z,6872
2017-06-14T15:55:09.087Z,6728
2017-06-14T15:56:24.612Z,6468
2017-06-14T15:57:40.154Z,6212
2017-06-14T15:58:55.695Z,6164
2017-06-14T16:00:11.129Z,6188
2017-06-14T16:01:26.638Z,6104
2017-06-14T16:02:42.081Z,6024
2017-06-14T16:03:54.862Z,5944
2017-06-14T16:05:10.350Z,5936
2017-06-14T16:06:25.945Z,5880
2017-06-14T16:07:41.616Z,5824
2017-06-14T16:08:57.087Z,5780
2017-06-14T16:10:12.615Z,5720
2017-06-14T16:11:28.126Z,5672
2017-06-14T16:12:43.687Z,5612
2017-06-14T16:13:59.183Z,5516
2017-06-14T16:15:14.839Z,5420
2017-06-14T16:16:30.362Z,5324
2017-06-14T16:17:45.841Z,5060
2017-06-14T16:19:01.332Z,4944
2017-06-14T16:20:16.790Z,4972
2017-06-14T16:22:02.953Z,4924
2017-06-14T16:23:17.171Z,4892
2017-06-14T16:24:32.715Z,4836
2017-06-14T16:25:46.872Z,4744
2017-06-14T16:27:02.387Z,4644
2017-06-14T16:28:17.910Z,4524
2017-06-14T16:29:32.087Z,4360
2017-06-14T16:30:47.555Z,4272
2017-06-14T16:32:03.053Z,4224
2017-06-14T16:33:18.699Z,4184
2017-06-14T16:34:34.379Z,4176
2017-06-14T16:35:48.562Z,4172
2017-06-14T16:37:04.457Z,4164
2017-06-14T16:38:20.009Z,4156
2017-06-14T16:39:35.172Z,4156
2017-06-14T16:40:50.286Z,4164